createdAt,value
2018-09-30T00:00:38.150Z,85.90
2018-09-30T00:01:43.355Z,85.70
2018-09-30T00:02:48.917Z,86.00
2018-09-30T00:03:54.326Z,86.20
2018-09-30T00:04:59.413Z,86.70
2018-09-30T00:06:04.288Z,86.50
2018-09-30T00:07:11.797Z,85.90
2018-09-30T00:08:17.096Z,86.10
2018-09-30T00:09:26.275Z,85.20
2018-09-30T00:10:32.933Z,84.50
2018-09-30T00:11:37.795Z,84.90
2018-09-30T00:12:42.923Z,85.30
2018-09-30T00:13:48.324Z,85.60
2018-09-30T00:14:54.280Z,86.10
2018-09-30T00:15:59.277Z,86.60
2018-09-30T00:17:04.157Z,86.70
2018-09-30T00:18:09.010Z,87.00
2018-09-30T00:19:14.224Z,87.80
2018-09-30T00:20:26.264Z,87.60
2018-09-30T00:21:31.105Z,87.60
2018-09-30T00:22:35.981Z,87.30
2018-09-30T00:23:46.557Z,87.00
2018-09-30T00:24:57.040Z,87.40
2018-09-30T00:26:06.780Z,86.50
2018-09-30T00:27:16.464Z,86.90
2018-09-30T00:28:21.943Z,87.10
2018-09-30T00:29:29.631Z,87.00
2018-09-30T00:30:35.373Z,87.60
2018-09-30T00:31:43.528Z,88.00
2018-09-30T00:32:50.391Z,87.60
2018-09-30T00:34:02.318Z,87.00
2018-09-30T00:35:07.136Z,86.60
2018-09-30T00:36:11.852Z,86.50
2018-09-30T00:37:17.083Z,86.30
2018-09-30T00:38:21.854Z,86.10
2018-09-30T00:39:27.335Z,86.00
2018-09-30T00:40:33.285Z,86.00
2018-09-30T00:41:41.904Z,86.70
2018-09-30T00:42:46.733Z,86.20
2018-09-30T00:43:53.824Z,86.60
2018-09-30T00:44:58.566Z,86.00
2018-09-30T00:46:03.671Z,87.10
2018-09-30T00:47:08.423Z,87.40
2018-09-30T00:48:14.594Z,87.80
2018-09-30T00:49:21.003Z,88.30
2018-09-30T00:50:26.962Z,88.90
2018-09-30T00:51:31.995Z,89.40
2018-09-30T00:52:37.283Z,89.20
2018-09-30T00:53:41.975Z,89.00
2018-09-30T00:54:46.917Z,89.90
2018-09-30T00:55:51.644Z,89.50
2018-09-30T00:56:56.773Z,89.50
2018-09-30T00:58:02.895Z,90.00
2018-09-30T00:59:07.674Z,90.20
2018-09-30T01:00:12.841Z,90.50
2018-09-30T01:01:17.555Z,90.30
2018-09-30T01:02:22.411Z,90.10
2018-09-30T01:03:27.264Z,90.60
2018-09-30T01:04:32.108Z,90.60
2018-09-30T01:05:36.832Z,90.80
2018-09-30T01:06:42.214Z,90.90
2018-09-30T01:07:46.982Z,90.90
2018-09-30T01:08:51.899Z,91.10
2018-09-30T01:09:56.567Z,91.40
2018-09-30T01:11:02.248Z,91.40
2018-09-30T01:12:07.156Z,91.40
2018-09-30T01:13:12.609Z,94.50
2018-09-30T01:14:17.754Z,94.60
2018-09-30T01:15:22.447Z,95.00
2018-09-30T01:16:27.454Z,95.10
2018-09-30T01:17:32.224Z,95.00
2018-09-30T01:18:36.912Z,95.10
2018-09-30T01:19:42.006Z,94.90
2018-09-30T01:20:46.776Z,94.50
2018-09-30T01:21:51.484Z,94.30
2018-09-30T01:22:56.218Z,94.30
2018-09-30T01:24:01.256Z,94.40
2018-09-30T01:25:06.161Z,94.40
2018-09-30T01:26:10.956Z,94.40
2018-09-30T01:27:15.694Z,94.50
2018-09-30T01:28:21.103Z,94.20
2018-09-30T01:29:25.946Z,94.70
2018-09-30T01:30:30.816Z,94.40
2018-09-30T01:31:35.738Z,94.40
2018-09-30T01:32:40.590Z,91.20
2018-09-30T01:33:45.759Z,90.90
2018-09-30T01:34:50.667Z,91.00
2018-09-30T01:35:55.746Z,90.60
2018-09-30T01:37:00.486Z,90.70
2018-09-30T01:38:05.304Z,90.80
2018-09-30T01:39:10.316Z,90.60
2018-09-30T01:40:15.855Z,90.60
2018-09-30T01:41:21.224Z,90.80
2018-09-30T01:42:26.218Z,90.70
2018-09-30T01:43:31.013Z,91.00
2018-09-30T01:44:35.983Z,90.80
2018-09-30T01:45:42.307Z,90.70
2018-09-30T01:46:47.025Z,90.90
2018-09-30T01:47:57.263Z,90.50
2018-09-30T01:49:02.012Z,90.30
2018-09-30T01:50:06.833Z,90.30
2018-09-30T01:51:11.731Z,90.70
2018-09-30T01:52:27.050Z,90.20
2018-09-30T01:53:32.336Z,90.00
2018-09-30T01:54:37.955Z,90.40
2018-09-30T01:55:43.200Z,90.80
2018-09-30T01:56:47.913Z,90.70
2018-09-30T01:57:52.681Z,90.30
2018-09-30T01:58:58.560Z,90.30
2018-09-30T02:00:05.753Z,90.50
2018-09-30T02:01:25.775Z,90.20
2018-09-30T02:02:30.568Z,90.30
2018-09-30T02:03:35.221Z,90.30
2018-09-30T02:04:40.664Z,90.00
2018-09-30T02:05:45.424Z,89.80
2018-09-30T02:06:50.253Z,90.10
2018-09-30T02:07:56.130Z,90.10
2018-09-30T02:09:00.998Z,90.10
2018-09-30T02:10:06.036Z,89.90
2018-09-30T02:11:10.981Z,89.80
2018-09-30T02:12:15.722Z,90.10
2018-09-30T02:13:20.427Z,90.40
2018-09-30T02:14:25.164Z,90.50
2018-09-30T02:15:29.824Z,90.30
2018-09-30T02:16:34.880Z,90.40
2018-09-30T02:17:40.340Z,90.40
2018-09-30T02:18:46.033Z,90.30
2018-09-30T02:19:50.721Z,90.50
2018-09-30T02:20:55.402Z,90.50
2018-09-30T02:22:00.140Z,90.50
2018-09-30T02:23:04.838Z,90.50
2018-09-30T02:24:09.603Z,90.50
2018-09-30T02:25:14.418Z,90.70
2018-09-30T02:26:19.142Z,90.90
2018-09-30T02:27:23.952Z,90.90
2018-09-30T02:28:29.030Z,91.10
2018-09-30T02:29:33.737Z,91.20
2018-09-30T02:30:38.524Z,91.40
2018-09-30T02:31:45.206Z,91.30
2018-09-30T02:32:50.764Z,91.20
2018-09-30T02:33:55.575Z,91.30
2018-09-30T02:35:01.534Z,91.40
2018-09-30T02:36:06.424Z,91.70
2018-09-30T02:37:11.534Z,91.40
2018-09-30T02:38:16.506Z,91.60
2018-09-30T02:39:21.259Z,91.90
2018-09-30T02:40:26.259Z,92.00
2018-09-30T02:41:31.104Z,91.40
2018-09-30T02:42:35.856Z,91.10
2018-09-30T02:43:40.983Z,90.90
2018-09-30T02:44:45.847Z,91.00
2018-09-30T02:45:50.597Z,91.20
2018-09-30T02:46:55.830Z,91.00
2018-09-30T02:48:00.785Z,90.60
2018-09-30T02:49:06.040Z,91.00
2018-09-30T02:50:10.805Z,91.00
2018-09-30T02:51:16.440Z,91.20
2018-09-30T02:52:21.273Z,90.90
2018-09-30T02:53:30.247Z,91.00
2018-09-30T02:54:35.390Z,91.10
2018-09-30T02:55:40.452Z,91.30
2018-09-30T02:56:45.292Z,91.20
2018-09-30T02:57:49.972Z,91.40
2018-09-30T02:58:54.667Z,91.60
2018-09-30T03:00:00.427Z,91.50
2018-09-30T03:01:05.167Z,91.70
2018-09-30T03:02:10.246Z,91.90
2018-09-30T03:03:15.080Z,91.80
2018-09-30T03:04:20.219Z,92.10
2018-09-30T03:05:25.325Z,92.20
2018-09-30T03:06:35.649Z,92.40
2018-09-30T03:07:46.085Z,95.40
2018-09-30T03:08:56.002Z,96.00
2018-09-30T03:10:01.654Z,95.90
2018-09-30T03:11:06.807Z,96.60
2018-09-30T03:12:12.088Z,97.20
2018-09-30T03:13:17.026Z,97.10
2018-09-30T03:14:22.644Z,97.00
2018-09-30T03:15:27.340Z,94.90
2018-09-30T03:16:32.057Z,97.20
2018-09-30T03:17:36.720Z,97.20
2018-09-30T03:18:42.321Z,96.50
2018-09-30T03:19:47.415Z,92.40
2018-09-30T03:20:52.074Z,92.70
2018-09-30T03:21:56.821Z,96.50
2018-09-30T03:23:01.658Z,93.70
2018-09-30T03:24:06.382Z,92.50
2018-09-30T03:25:11.459Z,92.60
2018-09-30T03:26:16.184Z,97.50
2018-09-30T03:27:20.973Z,98.10
2018-09-30T03:28:25.660Z,98.10
2018-09-30T03:29:31.264Z,95.20
2018-09-30T03:30:35.980Z,93.00
2018-09-30T03:31:40.763Z,96.30
2018-09-30T03:32:45.409Z,92.80
2018-09-30T03:33:50.619Z,92.80
2018-09-30T03:35:37.943Z,92.80
2018-09-30T03:36:42.319Z,92.80
2018-09-30T03:37:46.740Z,93.00
2018-09-30T03:38:51.091Z,92.90
2018-09-30T03:39:55.560Z,92.80
2018-09-30T03:40:59.994Z,92.70
2018-09-30T03:42:04.487Z,92.90
2018-09-30T03:43:09.340Z,92.90
2018-09-30T03:44:13.758Z,93.00
2018-09-30T03:45:18.099Z,93.20
2018-09-30T03:46:22.601Z,93.00
2018-09-30T03:47:27.095Z,93.00
2018-09-30T03:48:31.518Z,92.80
2018-09-30T03:49:36.071Z,92.80
2018-09-30T03:50:40.654Z,93.00
2018-09-30T03:51:45.076Z,93.10
2018-09-30T03:52:49.741Z,93.00
2018-09-30T03:53:54.115Z,92.90
2018-09-30T03:54:58.529Z,92.90
2018-09-30T03:56:02.940Z,93.00
2018-09-30T03:57:07.484Z,92.90
2018-09-30T03:58:11.842Z,93.10
2018-09-30T03:59:16.715Z,92.90
2018-09-30T04:00:21.024Z,92.90
2018-09-30T04:01:25.440Z,92.80
2018-09-30T04:02:30.005Z,92.90
2018-09-30T04:03:34.738Z,92.80
2018-09-30T04:04:39.261Z,93.10
2018-09-30T04:05:43.631Z,93.00
2018-09-30T04:06:48.369Z,93.00
2018-09-30T04:07:53.075Z,93.00
2018-09-30T04:08:57.922Z,93.10
2018-09-30T04:10:02.329Z,93.20
2018-09-30T04:11:06.739Z,93.40
2018-09-30T04:12:11.451Z,93.40
2018-09-30T04:13:16.304Z,93.20
2018-09-30T04:14:20.760Z,93.30
2018-09-30T04:15:25.182Z,93.50
2018-09-30T04:16:29.910Z,93.30
2018-09-30T04:17:34.500Z,93.00
2018-09-30T04:18:38.940Z,93.00
2018-09-30T04:19:43.268Z,92.90
2018-09-30T04:20:47.683Z,92.80
2018-09-30T04:21:52.045Z,92.80
2018-09-30T04:22:56.503Z,92.80
2018-09-30T04:24:06.350Z,92.90
2018-09-30T04:25:11.690Z,92.90
2018-09-30T04:26:16.039Z,92.90
2018-09-30T04:27:20.759Z,93.00
2018-09-30T04:28:25.159Z,93.10
2018-09-30T04:29:29.666Z,93.30
2018-09-30T04:30:34.866Z,93.10
2018-09-30T04:31:39.346Z,93.00
2018-09-30T04:32:43.835Z,93.10
2018-09-30T04:33:48.495Z,93.20
2018-09-30T04:34:54.682Z,93.10
2018-09-30T04:35:59.887Z,93.30
2018-09-30T04:37:04.213Z,93.10
2018-09-30T04:38:08.697Z,93.30
2018-09-30T04:39:13.165Z,93.40
2018-09-30T04:40:17.742Z,93.60
2018-09-30T04:41:22.155Z,93.70
2018-09-30T04:42:26.554Z,93.70
2018-09-30T04:43:30.959Z,93.80
2018-09-30T04:44:35.359Z,93.90
2018-09-30T04:45:40.549Z,93.90
2018-09-30T04:46:44.954Z,94.00
2018-09-30T04:47:49.354Z,93.70
2018-09-30T04:48:53.915Z,93.90
2018-09-30T04:49:58.371Z,93.80
2018-09-30T04:51:02.875Z,93.50
2018-09-30T04:52:07.539Z,93.60
2018-09-30T04:53:12.070Z,93.70
2018-09-30T04:54:16.491Z,93.60
2018-09-30T04:55:20.972Z,93.50
2018-09-30T04:56:25.603Z,93.40
2018-09-30T04:57:30.078Z,93.30
2018-09-30T04:58:34.457Z,93.30
2018-09-30T04:59:38.951Z,93.30
2018-09-30T05:00:43.388Z,93.40
2018-09-30T05:01:47.851Z,93.60
2018-09-30T05:02:52.583Z,93.50
2018-09-30T05:03:57.125Z,93.30
2018-09-30T05:05:01.509Z,93.30
2018-09-30T05:06:06.003Z,93.60
2018-09-30T05:07:10.462Z,93.80
2018-09-30T05:08:14.844Z,93.70
2018-09-30T05:09:19.539Z,93.60
2018-09-30T05:10:23.928Z,93.70
2018-09-30T05:11:28.328Z,93.60
2018-09-30T05:12:33.362Z,93.70
2018-09-30T05:13:37.752Z,93.70
2018-09-30T05:14:42.396Z,94.00
2018-09-30T05:15:46.731Z,93.80
2018-09-30T05:16:51.488Z,93.70
2018-09-30T05:17:55.898Z,93.90
2018-09-30T05:19:00.323Z,94.00
2018-09-30T05:20:05.135Z,93.90
2018-09-30T05:21:09.499Z,93.90
2018-09-30T05:22:13.944Z,93.80
2018-09-30T05:23:20.042Z,93.90
2018-09-30T05:24:24.770Z,94.00
2018-09-30T05:25:29.825Z,93.90
2018-09-30T05:26:35.176Z,94.00
2018-09-30T05:27:40.710Z,94.10
2018-09-30T05:28:47.477Z,94.10
2018-09-30T05:29:52.238Z,94.10
2018-09-30T05:30:57.253Z,94.40
2018-09-30T05:32:01.632Z,94.40
2018-09-30T05:33:06.037Z,94.30
2018-09-30T05:34:10.418Z,94.50
2018-09-30T05:35:14.778Z,94.20
2018-09-30T05:36:19.175Z,94.20
2018-09-30T05:37:24.166Z,94.30
2018-09-30T05:38:28.685Z,94.10
2018-09-30T05:41:39.852Z,94.40
2018-09-30T05:42:44.248Z,94.20
2018-09-30T05:43:49.104Z,94.10
2018-09-30T05:44:53.619Z,93.90
2018-09-30T05:45:58.093Z,94.20
2018-09-30T05:47:02.525Z,94.20
2018-09-30T05:48:07.038Z,94.30
2018-09-30T05:49:11.536Z,94.50
2018-09-30T05:50:16.976Z,94.30
2018-09-30T05:51:21.426Z,94.50
2018-09-30T05:52:25.945Z,94.50
2018-09-30T05:53:30.346Z,94.50
2018-09-30T05:54:34.729Z,94.40
2018-09-30T05:55:39.191Z,94.40
2018-09-30T05:56:44.871Z,94.50
2018-09-30T05:57:49.922Z,94.50
2018-09-30T05:58:54.590Z,94.70
2018-09-30T05:59:59.300Z,94.60
2018-09-30T06:01:04.185Z,97.10
2018-09-30T06:02:09.614Z,95.00
2018-09-30T06:03:14.589Z,95.00
2018-09-30T06:04:18.976Z,95.90
2018-09-30T06:05:24.308Z,95.40
2018-09-30T06:06:29.125Z,96.40
2018-09-30T06:07:33.606Z,97.10
2018-09-30T06:08:37.972Z,96.80
2018-09-30T06:09:42.811Z,94.90
2018-09-30T06:10:47.274Z,94.90
2018-09-30T06:11:51.671Z,94.90
2018-09-30T06:12:57.282Z,95.20
2018-09-30T06:14:02.370Z,96.30
2018-09-30T06:15:08.237Z,94.90
2018-09-30T06:16:16.195Z,95.00
2018-09-30T06:17:20.703Z,94.70
2018-09-30T06:18:25.958Z,94.80
2018-09-30T06:19:30.604Z,94.80
2018-09-30T06:20:36.402Z,95.00
2018-09-30T06:21:41.717Z,95.90
2018-09-30T06:22:46.424Z,95.10
2018-09-30T06:23:51.019Z,95.90
2018-09-30T06:24:55.583Z,95.60
2018-09-30T06:26:00.459Z,95.00
2018-09-30T06:27:10.762Z,95.10
2018-09-30T06:28:19.104Z,95.00
2018-09-30T06:29:26.208Z,94.80
2018-09-30T06:30:32.129Z,94.90
2018-09-30T06:31:36.952Z,95.00
2018-09-30T06:32:57.550Z,95.00
2018-09-30T06:34:07.881Z,95.00
2018-09-30T06:35:29.266Z,94.90
2018-09-30T06:36:48.963Z,94.90
2018-09-30T06:38:04.435Z,94.80
2018-09-30T06:39:18.466Z,94.60
2018-09-30T06:41:50.883Z,94.40
2018-09-30T06:42:55.445Z,94.30
2018-09-30T06:44:12.510Z,94.20
2018-09-30T06:45:28.960Z,94.10
2018-09-30T06:46:44.472Z,93.90
2018-09-30T06:47:58.241Z,93.90
2018-09-30T06:49:16.256Z,94.00
2018-09-30T06:50:28.606Z,93.70
2018-09-30T06:51:34.160Z,93.70
2018-09-30T06:52:44.689Z,94.00
2018-09-30T06:53:50.277Z,93.70
2018-09-30T06:54:56.157Z,93.40
2018-09-30T06:56:00.580Z,93.40
2018-09-30T06:57:05.174Z,93.40
2018-09-30T06:58:10.775Z,93.50
2018-09-30T06:59:20.111Z,93.30
2018-09-30T07:00:24.897Z,93.30
2018-09-30T07:01:42.840Z,93.40
2018-09-30T07:02:49.198Z,92.90
2018-09-30T07:03:53.732Z,92.50
2018-09-30T07:04:59.181Z,92.60
2018-09-30T07:06:04.390Z,92.60
2018-09-30T07:07:08.817Z,92.50
2018-09-30T07:08:13.890Z,92.10
2018-09-30T07:09:20.735Z,92.00
2018-09-30T07:10:25.874Z,92.10
2018-09-30T07:11:31.497Z,91.80
2018-09-30T07:12:36.428Z,91.80
2018-09-30T07:13:42.453Z,91.80
2018-09-30T07:14:46.952Z,91.90
2018-09-30T07:15:53.446Z,91.80
2018-09-30T07:16:58.292Z,91.50
2018-09-30T07:18:04.186Z,91.50
2018-09-30T07:19:16.683Z,91.70
2018-09-30T07:20:33.454Z,92.10
2018-09-30T07:21:44.584Z,91.90
2018-09-30T07:23:01.694Z,92.00
2018-09-30T07:24:31.805Z,91.60
2018-09-30T07:26:06.872Z,91.50
2018-09-30T07:27:13.764Z,91.00
2018-09-30T07:28:23.307Z,90.50
2018-09-30T07:29:37.358Z,90.50
2018-09-30T07:31:00.914Z,90.50
2018-09-30T07:32:10.340Z,90.60
2018-09-30T07:33:17.110Z,90.90
2018-09-30T07:34:21.636Z,91.00
2018-09-30T07:35:35.016Z,91.40
2018-09-30T07:36:53.673Z,91.00
2018-09-30T07:38:01.789Z,90.50
2018-09-30T07:39:11.951Z,90.10
2018-09-30T07:40:22.361Z,90.10
2018-09-30T07:41:29.139Z,90.10
2018-09-30T07:42:35.416Z,89.80
2018-09-30T07:43:41.517Z,89.90
2018-09-30T07:44:46.285Z,90.20
2018-09-30T07:45:51.884Z,90.20
2018-09-30T07:46:57.432Z,90.00
2018-09-30T07:48:04.300Z,89.30
2018-09-30T07:49:12.365Z,88.90
2018-09-30T07:50:19.145Z,88.60
2018-09-30T07:51:27.380Z,87.40
2018-09-30T07:52:35.308Z,87.10
2018-09-30T07:53:41.263Z,86.60
2018-09-30T07:54:46.791Z,86.10
2018-09-30T07:55:56.615Z,85.60
2018-09-30T07:57:08.024Z,86.00
2018-09-30T07:58:30.902Z,86.10
2018-09-30T07:59:45.692Z,86.10
2018-09-30T08:00:51.782Z,86.10
2018-09-30T08:01:58.516Z,85.20
2018-09-30T08:03:04.353Z,85.80
2018-09-30T08:04:11.661Z,85.50
2018-09-30T08:05:24.516Z,84.90
2018-09-30T08:06:29.632Z,85.20
2018-09-30T08:07:37.256Z,85.20
2018-09-30T08:08:43.430Z,85.50
2018-09-30T08:09:54.401Z,84.40
2018-09-30T08:11:04.644Z,83.90
2018-09-30T08:12:09.496Z,84.20
2018-09-30T08:13:14.201Z,84.40
2018-09-30T08:14:23.341Z,84.50
2018-09-30T08:15:27.853Z,84.20
2018-09-30T08:16:32.735Z,82.80
2018-09-30T08:17:38.324Z,82.40
2018-09-30T08:18:42.880Z,82.60
2018-09-30T08:19:49.414Z,82.90
2018-09-30T08:20:53.750Z,84.00
2018-09-30T08:22:01.941Z,85.10
2018-09-30T08:23:08.273Z,84.60
2018-09-30T08:24:12.999Z,83.60
2018-09-30T08:25:17.534Z,83.10
2018-09-30T08:26:24.413Z,83.90
2018-09-30T08:27:28.875Z,82.80
2018-09-30T08:28:33.357Z,82.10
2018-09-30T08:29:38.182Z,82.20
2018-09-30T08:30:42.795Z,81.70
2018-09-30T08:31:48.135Z,82.00
2018-09-30T08:32:54.247Z,81.30
2018-09-30T08:34:01.340Z,81.30
2018-09-30T08:35:09.050Z,81.20
2018-09-30T08:36:13.545Z,81.20
2018-09-30T08:37:23.191Z,81.70
2018-09-30T08:38:34.271Z,80.70
2018-09-30T08:39:39.811Z,80.10
2018-09-30T08:40:49.389Z,79.90
2018-09-30T08:41:54.188Z,79.80
2018-09-30T08:42:58.846Z,79.50
2018-09-30T08:44:03.436Z,79.70
2018-09-30T08:45:08.003Z,79.90
2018-09-30T08:46:12.499Z,79.60
2018-09-30T08:47:17.855Z,78.90
2018-09-30T08:48:22.754Z,78.20
2018-09-30T08:49:27.377Z,77.80
2018-09-30T08:50:35.432Z,77.50
2018-09-30T08:51:40.046Z,77.30
2018-09-30T08:52:45.378Z,77.00
2018-09-30T08:53:50.229Z,76.60
2018-09-30T08:54:58.367Z,76.30
2018-09-30T08:56:09.662Z,76.10
2018-09-30T08:57:17.657Z,76.10
2018-09-30T08:58:23.642Z,75.90
2018-09-30T08:59:28.234Z,75.80
2018-09-30T09:00:34.958Z,75.80
2018-09-30T09:01:40.210Z,76.10
2018-09-30T09:02:46.418Z,76.10
2018-09-30T09:03:51.782Z,76.30
2018-09-30T09:04:56.624Z,75.90
2018-09-30T09:06:02.232Z,75.90
2018-09-30T09:07:07.184Z,75.30
2018-09-30T09:08:11.847Z,75.50
2018-09-30T09:09:16.320Z,74.60
2018-09-30T09:10:21.297Z,74.20
2018-09-30T09:11:28.456Z,74.20
2018-09-30T09:12:35.356Z,74.20
2018-09-30T09:13:39.954Z,73.70
2018-09-30T09:14:44.807Z,73.70
2018-09-30T09:15:49.429Z,74.00
2018-09-30T09:16:53.984Z,74.60
2018-09-30T09:18:01.330Z,74.60
2018-09-30T09:19:07.709Z,74.20
2018-09-30T09:20:12.285Z,74.00
2018-09-30T09:21:16.740Z,74.10
2018-09-30T09:22:22.289Z,73.60
2018-09-30T09:23:26.692Z,73.50
2018-09-30T09:24:33.486Z,73.30
2018-09-30T09:25:39.846Z,73.10
2018-09-30T09:26:44.564Z,73.20
2018-09-30T09:27:49.915Z,73.00
2018-09-30T09:28:55.487Z,73.40
2018-09-30T09:30:00.570Z,72.20
2018-09-30T09:31:05.984Z,71.30
2018-09-30T09:32:14.625Z,71.10
2018-09-30T09:33:19.427Z,71.30
2018-09-30T09:34:24.982Z,72.60
2018-09-30T09:35:29.643Z,71.80
2018-09-30T09:36:35.030Z,71.50
2018-09-30T09:37:39.962Z,71.40
2018-09-30T09:38:45.291Z,71.40
2018-09-30T09:39:56.269Z,71.60
2018-09-30T09:41:02.801Z,71.60
2018-09-30T09:42:07.924Z,71.80
2018-09-30T09:43:12.914Z,73.50
2018-09-30T09:44:46.994Z,74.20
2018-09-30T09:46:00.451Z,74.70
2018-09-30T09:47:12.068Z,73.80
2018-09-30T09:48:20.955Z,73.30
2018-09-30T09:49:32.808Z,72.30
2018-09-30T09:50:43.601Z,72.70
2018-09-30T09:51:51.403Z,72.30
2018-09-30T09:53:01.603Z,72.00
2018-09-30T09:54:07.732Z,71.80
2018-09-30T09:55:12.649Z,69.70
2018-09-30T09:56:18.414Z,69.60
2018-09-30T09:57:36.132Z,69.40
2018-09-30T09:58:43.988Z,69.30
2018-09-30T09:59:48.804Z,69.50
2018-09-30T10:01:05.385Z,69.70
2018-09-30T10:02:19.013Z,70.20
2018-09-30T10:03:26.899Z,69.80
2018-09-30T10:04:35.018Z,69.90
2018-09-30T10:05:46.856Z,69.30
2018-09-30T10:06:54.091Z,68.80
2018-09-30T10:08:04.572Z,68.30
2018-09-30T10:09:15.467Z,68.10
2018-09-30T10:10:21.414Z,67.90
2018-09-30T10:11:28.756Z,66.10
2018-09-30T10:12:37.440Z,66.80
2018-09-30T10:13:43.576Z,65.80
2018-09-30T10:14:49.460Z,64.90
2018-09-30T10:15:56.769Z,65.20
2018-09-30T10:17:02.203Z,65.30
2018-09-30T10:18:09.727Z,64.90
2018-09-30T10:19:17.663Z,64.80
2018-09-30T10:20:23.928Z,65.50
2018-09-30T10:21:30.296Z,65.30
2018-09-30T10:22:35.178Z,65.90
2018-09-30T10:23:40.954Z,65.50
2018-09-30T10:24:46.279Z,65.00
2018-09-30T10:25:51.266Z,65.10
2018-09-30T10:26:57.281Z,65.20
2018-09-30T10:28:04.406Z,65.20
2018-09-30T10:29:20.056Z,64.90
2018-09-30T10:30:31.384Z,64.30
2018-09-30T10:31:40.200Z,63.50
2018-09-30T10:32:44.784Z,63.50
2018-09-30T10:33:51.163Z,63.00
2018-09-30T10:34:58.254Z,63.60
2018-09-30T10:36:04.711Z,62.80
2018-09-30T10:37:09.914Z,62.40
2018-09-30T10:38:14.599Z,62.70
2018-09-30T10:39:19.678Z,63.10
2018-09-30T10:40:24.126Z,62.40
2018-09-30T10:41:28.560Z,62.20
2018-09-30T10:42:33.867Z,63.50
2018-09-30T10:43:41.820Z,63.30
2018-09-30T10:44:46.197Z,63.20
2018-09-30T10:45:50.780Z,61.90
2018-09-30T10:46:56.829Z,61.40
2018-09-30T10:48:02.146Z,61.10
2018-09-30T10:49:09.443Z,60.30
2018-09-30T10:50:14.418Z,61.70
2018-09-30T10:51:20.166Z,61.40
2018-09-30T10:52:25.477Z,61.70
2018-09-30T10:53:29.903Z,61.70
2018-09-30T10:54:34.368Z,61.80
2018-09-30T10:55:38.846Z,61.80
2018-09-30T10:56:43.616Z,61.80
2018-09-30T10:57:48.821Z,61.40
2018-09-30T10:58:53.267Z,60.60
2018-09-30T10:59:58.813Z,61.20
2018-09-30T11:01:03.326Z,61.60
2018-09-30T11:02:08.346Z,61.60
2018-09-30T11:04:16.337Z,61.00
2018-09-30T11:05:23.021Z,61.20
2018-09-30T11:06:27.826Z,60.80
2018-09-30T11:07:33.413Z,60.30
2018-09-30T11:08:41.154Z,59.60
2018-09-30T11:09:50.132Z,58.70
2018-09-30T11:10:56.611Z,58.40
2018-09-30T11:12:07.218Z,58.70
2018-09-30T11:13:12.814Z,56.70
2018-09-30T11:14:30.820Z,56.90
2018-09-30T11:16:22.346Z,56.20
2018-09-30T11:17:28.477Z,55.70
2018-09-30T11:18:34.066Z,56.80
2018-09-30T11:19:40.913Z,58.50
2018-09-30T11:20:47.264Z,58.00
2018-09-30T11:23:28.433Z,56.00
2018-09-30T11:24:33.249Z,55.90
2018-09-30T11:25:37.944Z,56.40
2018-09-30T11:26:42.753Z,56.20
2018-09-30T11:27:47.374Z,55.70
2018-09-30T11:28:54.872Z,55.90
2018-09-30T11:30:00.334Z,53.80
2018-09-30T11:31:05.269Z,52.60
2018-09-30T11:32:13.264Z,51.60
2018-09-30T11:33:18.485Z,50.70
2018-09-30T11:34:23.146Z,48.30
2018-09-30T11:35:28.741Z,46.00
2018-09-30T11:36:34.714Z,44.30
2018-09-30T11:37:40.778Z,42.80
2018-09-30T11:38:45.907Z,41.10
2018-09-30T11:39:55.419Z,38.60
2018-09-30T11:41:01.079Z,36.80
2018-09-30T11:42:05.815Z,35.20
2018-09-30T11:43:16.189Z,33.90
2018-09-30T11:44:22.104Z,33.10
2018-09-30T11:45:28.544Z,33.10
2018-09-30T11:46:35.679Z,32.90
2018-09-30T11:47:42.279Z,32.60
2018-09-30T11:48:46.824Z,31.30
2018-09-30T11:49:56.275Z,31.70
2018-09-30T11:51:01.808Z,30.20
2018-09-30T11:52:09.185Z,31.10
2018-09-30T11:53:13.867Z,31.10
2018-09-30T11:54:19.647Z,30.00
2018-09-30T11:55:25.195Z,29.70
2018-09-30T11:56:29.927Z,29.20
2018-09-30T11:57:34.918Z,28.90
2018-09-30T11:58:44.723Z,29.20
2018-09-30T11:59:52.423Z,29.20
2018-09-30T12:00:58.766Z,29.00
2018-09-30T12:02:03.426Z,28.90
2018-09-30T12:03:09.714Z,29.40
2018-09-30T12:04:16.570Z,29.00
2018-09-30T12:05:22.375Z,28.90
2018-09-30T12:06:27.331Z,28.90
2018-09-30T12:07:32.230Z,28.50
2018-09-30T12:08:38.372Z,28.50
2018-09-30T12:09:43.199Z,28.20
2018-09-30T12:10:49.548Z,29.10
2018-09-30T12:11:55.260Z,29.30
2018-09-30T12:12:59.717Z,28.60
2018-09-30T12:14:04.322Z,28.10
2018-09-30T12:15:09.650Z,28.10
2018-09-30T12:16:15.936Z,28.20
2018-09-30T12:17:23.384Z,27.90
2018-09-30T12:18:29.163Z,28.20
2018-09-30T12:19:34.503Z,28.30
2018-09-30T12:20:40.528Z,27.10
2018-09-30T12:21:45.760Z,27.70
2018-09-30T12:22:52.601Z,28.30
2018-09-30T12:23:57.414Z,28.60
2018-09-30T12:25:03.235Z,28.80
2018-09-30T12:26:09.592Z,28.20
2018-09-30T12:27:14.944Z,28.70
2018-09-30T12:28:19.881Z,29.00
2018-09-30T12:29:26.283Z,28.70
2018-09-30T12:30:30.887Z,28.20
2018-09-30T12:31:36.021Z,29.00
2018-09-30T12:32:43.266Z,29.20
2018-09-30T12:33:50.200Z,29.90
2018-09-30T12:34:54.897Z,29.00
2018-09-30T12:36:00.276Z,28.80
2018-09-30T12:37:04.880Z,29.30
2018-09-30T12:38:10.086Z,29.30
2018-09-30T12:39:15.798Z,28.50
2018-09-30T12:40:20.824Z,28.30
2018-09-30T12:41:26.065Z,28.30
2018-09-30T12:42:30.732Z,29.00
2018-09-30T12:43:35.563Z,29.60
2018-09-30T12:44:42.207Z,29.70
2018-09-30T12:45:48.410Z,30.00
2018-09-30T12:46:54.156Z,30.60
2018-09-30T12:47:58.804Z,30.40
2018-09-30T12:49:07.561Z,29.90
2018-09-30T12:50:49.863Z,29.60
2018-09-30T12:53:17.380Z,29.40
2018-09-30T12:54:22.482Z,30.00
2018-09-30T12:55:32.417Z,29.80
2018-09-30T12:56:38.005Z,29.40
2018-09-30T12:57:42.458Z,30.00
2018-09-30T12:58:47.042Z,31.20
2018-09-30T12:59:55.652Z,31.30
2018-09-30T13:01:02.522Z,30.20
2018-09-30T13:02:09.384Z,31.20
2018-09-30T13:03:14.818Z,31.40
2018-09-30T13:04:19.801Z,31.60
2018-09-30T13:05:24.640Z,32.20
2018-09-30T13:06:30.207Z,32.50
2018-09-30T13:07:35.430Z,33.50
2018-09-30T13:10:01.111Z,35.30
2018-09-30T13:11:05.712Z,36.20
2018-09-30T13:12:13.785Z,37.10
2018-09-30T13:13:20.265Z,37.10
2018-09-30T13:14:24.747Z,38.00
2018-09-30T13:15:32.456Z,37.90
2018-09-30T13:16:37.545Z,38.00
2018-09-30T13:17:43.041Z,38.70
2018-09-30T13:18:54.557Z,37.90
2018-09-30T13:20:02.103Z,38.50
2018-09-30T13:21:15.057Z,39.40
2018-09-30T13:22:25.668Z,39.80
2018-09-30T13:23:35.243Z,36.40
2018-09-30T13:24:42.247Z,35.30
2018-09-30T13:25:58.406Z,35.40
2018-09-30T13:27:05.844Z,36.50
2018-09-30T13:28:13.955Z,36.70
2018-09-30T13:29:20.060Z,36.80
2018-09-30T13:30:27.350Z,37.00
2018-09-30T13:31:36.374Z,37.00
2018-09-30T13:32:44.434Z,36.90
2018-09-30T13:33:50.092Z,36.70
2018-09-30T13:34:57.394Z,37.50
2018-09-30T13:36:11.621Z,37.30
2018-09-30T13:37:19.527Z,37.10
2018-09-30T13:38:28.664Z,37.60
2018-09-30T13:39:37.636Z,37.60
2018-09-30T13:40:45.321Z,38.10
2018-09-30T13:41:54.868Z,38.70
2018-09-30T13:43:08.295Z,39.20
2018-09-30T13:44:20.156Z,39.30
2018-09-30T13:45:27.871Z,39.50
2018-09-30T13:46:37.488Z,39.80
2018-09-30T13:47:51.298Z,39.70
2018-09-30T13:48:58.608Z,39.60
2018-09-30T13:50:09.967Z,39.80
2018-09-30T13:51:32.264Z,40.20
2018-09-30T13:52:38.736Z,40.40
2018-09-30T13:53:43.869Z,39.20
2018-09-30T13:54:58.703Z,39.90
2018-09-30T13:56:05.533Z,39.90
2018-09-30T13:57:17.996Z,39.00
2018-09-30T13:58:39.064Z,40.70
2018-09-30T13:59:48.181Z,40.20
2018-09-30T14:00:55.590Z,40.30
2018-09-30T14:02:01.563Z,40.70
2018-09-30T14:03:06.277Z,40.60
2018-09-30T14:04:11.040Z,40.80
2018-09-30T14:05:18.349Z,41.20
2018-09-30T14:06:35.712Z,41.30
2018-09-30T14:07:52.971Z,40.40
2018-09-30T14:08:57.653Z,41.30
2018-09-30T14:11:38.126Z,41.00
2018-09-30T14:12:43.966Z,41.60
2018-09-30T14:13:48.702Z,41.80
2018-09-30T14:14:53.228Z,42.40
2018-09-30T14:16:03.857Z,42.60
2018-09-30T14:17:08.840Z,43.10
2018-09-30T14:18:14.155Z,42.20
2018-09-30T14:19:20.689Z,42.30
2018-09-30T14:20:27.086Z,42.60
2018-09-30T14:21:32.005Z,42.60
2018-09-30T14:22:37.264Z,42.60
2018-09-30T14:23:42.810Z,41.60
2018-09-30T14:24:48.374Z,42.30
2018-09-30T14:25:54.237Z,42.60
2018-09-30T14:26:59.672Z,42.70
2018-09-30T14:28:06.841Z,42.80